Time;durP1;ratioP1;P1;durP2;ratioP2;P2;SDS_P1;SDS_P2;PMS_P1;PMS_P2;Temp;Humidity;BMP_temperature;BMP_pressure;BME280_temperature;BME280_humidity;BME280_pressure;Samples;Min_cycle;Max_cycle;Signal;HPM_P1;HPM_P2
2023/05/22 00:00:51;;;;;;;35.13;20.33;;;;;;;;;;4438156;32;20411;-73
2023/05/22 00:03:16;;;;;;;33.80;19.65;;;;;;;;;;4435328;32;20025;-73
2023/05/22 00:05:42;;;;;;;42.65;20.92;;;;;;;;;;4438263;32;20026;-72
2023/05/22 00:08:10;;;;;;;36.28;20.67;;;;;;;;;;4438066;32;20021;-73
2023/05/22 00:10:38;;;;;;;37.60;19.73;;;;;;;;;;4435253;32;20045;-73
2023/05/22 00:13:04;;;;;;;31.45;18.75;;;;;;;;;;4438121;32;20057;-73
2023/05/22 00:15:29;;;;;;;40.85;19.67;;;;;;;;;;4435316;32;20067;-73
2023/05/22 00:17:54;;;;;;;42.15;20.65;;;;;;;;;;4436917;32;20021;-72
2023/05/22 00:20:19;;;;;;;39.75;23.05;;;;;;;;;;4436417;32;20022;-73
2023/05/22 00:22:47;;;;;;;46.83;23.70;;;;;;;;;;4437821;32;20018;-72
2023/05/22 00:25:13;;;;;;;44.10;23.58;;;;;;;;;;4436484;32;20030;-72
2023/05/22 00:27:39;;;;;;;39.85;21.65;;;;;;;;;;4437881;32;20021;-72
2023/05/22 00:30:06;;;;;;;38.53;21.23;;;;;;;;;;4438125;32;20343;-73
2023/05/22 00:32:31;;;;;;;42.85;20.58;;;;;;;;;;4436474;32;20052;-73
2023/05/22 00:34:56;;;;;;;34.97;20.02;;;;;;;;;;4439370;32;20096;-73
2023/05/22 00:37:22;;;;;;;44.83;21.42;;;;;;;;;;4437803;32;20517;-72
2023/05/22 00:39:47;;;;;;;41.30;20.60;;;;;;;;;;4436054;32;20018;-72
2023/05/22 00:42:12;;;;;;;33.58;20.23;;;;;;;;;;4436518;32;20033;-72
2023/05/22 00:44:37;;;;;;;43.08;21.27;;;;;;;;;;4438237;32;20018;-72
2023/05/22 00:47:03;;;;;;;34.20;19.02;;;;;;;;;;4436870;32;20385;-72
2023/05/22 00:49:28;;;;;;;35.65;21.05;;;;;;;;;;4435787;32;20026;-72
2023/05/22 00:51:53;;;;;;;41.55;22.83;;;;;;;;;;4437999;32;20082;-72
2023/05/22 00:54:19;;;;;;;42.55;24.58;;;;;;;;;;4436438;32;20018;-72
2023/05/22 00:56:44;;;;;;;43.85;21.40;;;;;;;;;;4434678;32;20427;-72
2023/05/22 00:59:09;;;;;;;36.45;22.33;;;;;;;;;;4436595;32;20082;-72
2023/05/22 01:01:37;;;;;;;47.13;21.90;;;;;;;;;;4435797;32;20093;-71
2023/05/22 01:04:08;;;;;;;34.70;20.48;;;;;;;;;;4435323;32;20022;-72
2023/05/22 01:06:34;;;;;;;37.00;21.58;;;;;;;;;;4437575;32;20496;-71
2023/05/22 01:08:59;;;;;;;39.85;22.75;;;;;;;;;;4436580;32;20022;-71
2023/05/22 01:11:27;;;;;;;40.17;24.02;;;;;;;;;;4437285;32;20315;-72
2023/05/22 01:13:56;;;;;;;53.42;25.73;;;;;;;;;;4436247;32;20040;-71
2023/05/22 01:16:40;;;;;;;53.72;27.95;;;;;;;;;;4436588;32;20051;-71
2023/05/22 01:19:22;;;;;;;53.83;25.58;;;;;;;;;;4437230;32;20025;-72
2023/05/22 01:22:06;;;;;;;43.10;25.73;;;;;;;;;;4436066;32;20415;-72
2023/05/22 01:24:50;;;;;;;40.50;25.40;;;;;;;;;;4435419;32;20395;-72
2023/05/22 01:27:34;;;;;;;44.28;24.60;;;;;;;;;;4437551;32;20017;-72
2023/05/22 01:30:18;;;;;;;44.05;25.65;;;;;;;;;;4435781;32;20041;-71
2023/05/22 01:32:45;;;;;;;46.72;24.65;;;;;;;;;;4435433;32;20087;-72
2023/05/22 01:35:11;;;;;;;42.97;23.45;;;;;;;;;;4437209;32;20052;-72
2023/05/22 01:37:37;;;;;;;48.00;26.15;;;;;;;;;;4437082;32;20025;-73
2023/05/22 01:40:05;;;;;;;50.78;24.25;;;;;;;;;;4434431;32;20017;-72
2023/05/22 01:42:30;;;;;;;38.70;22.52;;;;;;;;;;4434177;32;20022;-73
2023/05/22 01:44:56;;;;;;;36.60;21.20;;;;;;;;;;4437299;32;20086;-72
2023/05/22 01:47:22;;;;;;;42.47;20.92;;;;;;;;;;4437551;32;20388;-73
2023/05/22 01:49:47;;;;;;;44.15;21.80;;;;;;;;;;4435884;32;20045;-72
2023/05/22 01:52:17;;;;;;;47.58;22.33;;;;;;;;;;4436237;32;20060;-73
2023/05/22 01:54:51;;;;;;;37.47;20.83;;;;;;;;;;4438439;32;20040;-72
2023/05/22 01:57:16;;;;;;;47.42;22.70;;;;;;;;;;4435192;32;20021;-72
2023/05/22 01:59:44;;;;;;;37.70;20.90;;;;;;;;;;4435400;32;20136;-72
2023/05/22 02:02:10;;;;;;;34.83;20.83;;;;;;;;;;4435895;32;20147;-72
2023/05/22 02:04:41;;;;;;;34.47;19.10;;;;;;;;;;4435367;32;20026;-73
2023/05/22 02:07:06;;;;;;;39.85;19.48;;;;;;;;;;4433975;32;20068;-73
2023/05/22 02:09:32;;;;;;;39.63;20.77;;;;;;;;;;4435110;32;20372;-72
2023/05/22 02:11:58;;;;;;;40.63;20.67;;;;;;;;;;4437077;32;20034;-72
2023/05/22 02:14:24;;;;;;;30.58;17.95;;;;;;;;;;4436360;32;20455;-72
2023/05/22 02:16:49;;;;;;;;;;;;;;;;;;4438063;32;20415;-72
2023/05/22 02:19:14;;;;;;;32.67;18.80;;;;;;;;;;4439028;32;19976;-72
2023/05/22 02:21:40;;;;;;;39.78;21.73;;;;;;;;;;4438226;32;20022;-72
2023/05/22 02:24:05;;;;;;;47.42;22.70;;;;;;;;;;4438753;32;20037;-72
2023/05/22 02:26:30;;;;;;;43.05;22.30;;;;;;;;;;4437996;32;20041;-72
2023/05/22 02:28:55;;;;;;;37.47;22.42;;;;;;;;;;4436884;32;20025;-72
2023/05/22 02:31:21;;;;;;;38.27;20.07;;;;;;;;;;4439272;32;20380;-72
2023/05/22 02:33:47;;;;;;;55.35;23.40;;;;;;;;;;4439810;32;20121;-72
2023/05/22 02:36:13;;;;;;;44.13;22.83;;;;;;;;;;4439400;32;20085;-72
2023/05/22 02:38:38;;;;;;;47.95;24.05;;;;;;;;;;4437933;32;20017;-72
2023/05/22 02:41:03;;;;;;;41.00;20.27;;;;;;;;;;4438252;32;20116;-73
2023/05/22 02:43:29;;;;;;;46.45;22.80;;;;;;;;;;4438461;32;20406;-72
2023/05/22 02:45:54;;;;;;;45.63;22.23;;;;;;;;;;4438101;32;20420;-71
2023/05/22 02:48:19;;;;;;;34.80;18.90;;;;;;;;;;4438207;32;20022;-72
2023/05/22 02:50:47;;;;;;;45.20;22.37;;;;;;;;;;4436966;32;20029;-72
2023/05/22 02:53:14;;;;;;;43.53;21.17;;;;;;;;;;4437694;32;20025;-72
2023/05/22 02:55:40;;;;;;;40.53;21.62;;;;;;;;;;4439188;32;20017;-71
2023/05/22 02:58:05;;;;;;;42.47;22.13;;;;;;;;;;4438243;32;20018;-71
2023/05/22 03:00:31;;;;;;;40.35;22.05;;;;;;;;;;4437849;32;20025;-71
2023/05/22 03:02:56;;;;;;;45.22;24.10;;;;;;;;;;4437154;32;20347;-72
2023/05/22 03:05:21;;;;;;;45.00;24.70;;;;;;;;;;4438962;32;20018;-72
2023/05/22 03:07:47;;;;;;;35.38;21.60;;;;;;;;;;4437595;32;20536;-72
2023/05/22 03:10:12;;;;;;;44.25;24.27;;;;;;;;;;4439373;32;20025;-73
2023/05/22 03:12:38;;;;;;;;;;;;;;;;;;4439058;32;20017;-72
2023/05/22 03:15:03;;;;;;;57.35;26.05;;;;;;;;;;4438972;32;19967;-73
2023/05/22 03:17:28;;;;;;;44.47;24.02;;;;;;;;;;4438667;32;20010;-72
2023/05/22 03:19:53;;;;;;;49.50;24.70;;;;;;;;;;4437119;32;20045;-72
2023/05/22 03:22:18;;;;;;;44.33;23.50;;;;;;;;;;4438967;32;20018;-72
2023/05/22 03:24:44;;;;;;;45.33;23.80;;;;;;;;;;4437252;32;20143;-71
2023/05/22 03:27:10;;;;;;;43.45;24.15;;;;;;;;;;4438293;32;20394;-72
2023/05/22 03:29:35;;;;;;;42.30;24.90;;;;;;;;;;4438885;32;20017;-73
2023/05/22 03:32:02;;;;;;;45.12;22.50;;;;;;;;;;4438828;32;20090;-73
2023/05/22 03:34:28;;;;;;;42.13;22.90;;;;;;;;;;4437887;32;20018;-73
2023/05/22 03:36:56;;;;;;;73.07;25.05;;;;;;;;;;4435810;32;20544;-73
2023/05/22 03:39:21;;;;;;;51.08;24.83;;;;;;;;;;4437029;32;20448;-73
2023/05/22 03:41:46;;;;;;;38.05;22.10;;;;;;;;;;4437562;32;20021;-73
2023/05/22 03:44:11;;;;;;;53.87;27.60;;;;;;;;;;4438924;32;20044;-73
2023/05/22 03:46:36;;;;;;;46.13;26.62;;;;;;;;;;4437384;32;20038;-73
2023/05/22 03:49:02;;;;;;;58.67;28.92;;;;;;;;;;4437516;32;20109;-73
2023/05/22 03:51:27;;;;;;;53.28;26.23;;;;;;;;;;4435301;32;20102;-71
2023/05/22 03:53:52;;;;;;;42.43;25.90;;;;;;;;;;4436724;32;20434;-71
2023/05/22 03:56:18;;;;;;;59.45;29.60;;;;;;;;;;4437276;32;20140;-73
2023/05/22 03:58:43;;;;;;;62.38;29.10;;;;;;;;;;4438066;32;20144;-72
2023/05/22 04:01:08;;;;;;;59.70;32.22;;;;;;;;;;4436979;32;20037;-72
2023/05/22 04:03:34;;;;;;;72.28;34.97;;;;;;;;;;4435420;32;20144;-72
2023/05/22 04:06:00;;;;;;;77.45;36.83;;;;;;;;;;4438173;32;20112;-72
2023/05/22 04:08:25;;;;;;;71.05;38.97;;;;;;;;;;4439196;32;20021;-72
2023/05/22 04:10:53;;;;;;;80.97;39.67;;;;;;;;;;4438590;32;20063;-72
2023/05/22 04:13:18;;;;;;;75.68;41.70;;;;;;;;;;4437034;32;20018;-72
2023/05/22 04:15:46;;;;;;;83.78;43.17;;;;;;;;;;4437547;32;20397;-72
2023/05/22 04:18:11;;;;;;;76.03;43.03;;;;;;;;;;4436620;32;20025;-72
2023/05/22 04:20:37;;;;;;;67.37;36.80;;;;;;;;;;4436601;32;20060;-73
2023/05/22 04:23:02;;;;;;;75.72;41.55;;;;;;;;;;4436710;32;20018;-73
2023/05/22 04:25:28;;;;;;;80.20;40.17;;;;;;;;;;4438039;32;20402;-73
2023/05/22 04:27:53;;;;;;;80.47;38.42;;;;;;;;;;4438423;32;20106;-72
2023/05/22 04:30:20;;;;;;;82.82;42.38;;;;;;;;;;4438477;32;20048;-72
2023/05/22 04:32:46;;;;;;;78.28;41.28;;;;;;;;;;4438375;32;20159;-73
2023/05/22 04:35:11;;;;;;;74.22;38.92;;;;;;;;;;4436513;32;20038;-73
2023/05/22 04:37:37;;;;;;;86.50;42.23;;;;;;;;;;4435576;32;20428;-72
2023/05/22 04:40:06;;;;;;;84.00;39.53;;;;;;;;;;4437278;32;20200;-71
2023/05/22 04:42:33;;;;;;;73.47;41.08;;;;;;;;;;4433549;32;20105;-72
2023/05/22 04:44:58;;;;;;;74.40;38.47;;;;;;;;;;4420345;32;20018;-72
2023/05/22 04:47:23;;;;;;;69.30;39.35;;;;;;;;;;4420821;32;20120;-72
2023/05/22 04:49:50;;;;;;;86.00;41.60;;;;;;;;;;4420781;32;20049;-73
2023/05/22 04:52:15;;;;;;;65.82;35.80;;;;;;;;;;4421507;32;20105;-71
2023/05/22 04:54:42;;;;;;;81.05;41.85;;;;;;;;;;4420648;32;20041;-72
2023/05/22 04:57:07;;;;;;;83.43;41.37;;;;;;;;;;4421356;32;20022;-71
2023/05/22 04:59:36;;;;;;;79.22;43.25;;;;;;;;;;4420349;32;20407;-72
2023/05/22 05:02:02;;;;;;;78.60;40.67;;;;;;;;;;4421660;32;20051;-72
2023/05/22 05:04:27;;;;;;;69.25;37.70;;;;;;;;;;4425040;32;20029;-72
2023/05/22 05:06:52;;;;;;;63.05;37.00;;;;;;;;;;4436641;32;20319;-73
2023/05/22 05:09:17;;;;;;;70.55;37.42;;;;;;;;;;4436953;32;20079;-72
2023/05/22 05:11:42;;;;;;;66.55;33.50;;;;;;;;;;4437257;32;20090;-72
2023/05/22 05:14:08;;;;;;;78.18;39.13;;;;;;;;;;4435515;32;20048;-73
2023/05/22 05:16:33;;;;;;;70.20;36.22;;;;;;;;;;4435604;32;20404;-73
2023/05/22 05:18:58;;;;;;;61.67;32.45;;;;;;;;;;4435254;32;20022;-72
2023/05/22 05:21:26;;;;;;;65.95;33.63;;;;;;;;;;4435584;32;20394;-73
2023/05/22 05:23:51;;;;;;;58.85;29.55;;;;;;;;;;4436289;32;20025;-72
2023/05/22 05:26:16;;;;;;;60.10;32.20;;;;;;;;;;4434864;32;20073;-73
2023/05/22 05:28:42;;;;;;;60.70;29.83;;;;;;;;;;4436758;32;20021;-70
2023/05/22 05:31:07;;;;;;;52.65;29.50;;;;;;;;;;4437501;32;20051;-71
2023/05/22 05:33:32;;;;;;;63.45;30.15;;;;;;;;;;4434880;32;20101;-72
2023/05/22 05:35:57;;;;;;;53.83;29.63;;;;;;;;;;4436192;32;20029;-72
2023/05/22 05:38:22;;;;;;;57.10;29.80;;;;;;;;;;4437138;32;20171;-71
2023/05/22 05:40:48;;;;;;;51.92;27.70;;;;;;;;;;4436329;32;20025;-72
2023/05/22 05:43:16;;;;;;;52.00;28.77;;;;;;;;;;4435056;32;20056;-71
2023/05/22 05:45:42;;;;;;;52.25;27.17;;;;;;;;;;4434238;32;20047;-72
2023/05/22 05:48:07;;;;;;;49.28;27.27;;;;;;;;;;4436256;32;20022;-71
2023/05/22 05:50:32;;;;;;;52.30;27.62;;;;;;;;;;4434980;32;20021;-71
2023/05/22 05:52:57;;;;;;;50.13;25.27;;;;;;;;;;4435705;32;20017;-71
2023/05/22 05:55:23;;;;;;;45.90;26.00;;;;;;;;;;4435180;32;20187;-72
2023/05/22 05:57:48;;;;;;;52.95;28.23;;;;;;;;;;4434638;32;20022;-72
2023/05/22 06:00:13;;;;;;;48.42;28.60;;;;;;;;;;4435119;32;20100;-72
2023/05/22 06:02:39;;;;;;;51.58;27.10;;;;;;;;;;4433761;32;20084;-72
2023/05/22 06:05:04;;;;;;;49.30;27.52;;;;;;;;;;4435975;32;20018;-71
2023/05/22 06:07:30;;;;;;;47.35;27.50;;;;;;;;;;4436505;32;20023;-72
2023/05/22 06:09:56;;;;;;;52.67;28.98;;;;;;;;;;4433628;32;20068;-71
2023/05/22 06:12:21;;;;;;;58.55;28.48;;;;;;;;;;4433967;32;20018;-72
2023/05/22 06:14:47;;;;;;;51.35;28.60;;;;;;;;;;4435569;32;20033;-73
2023/05/22 06:17:12;;;;;;;51.42;27.23;;;;;;;;;;4435002;32;20022;-71
2023/05/22 06:19:37;;;;;;;50.38;28.45;;;;;;;;;;4435169;32;20359;-72
2023/05/22 06:22:02;;;;;;;52.53;28.58;;;;;;;;;;4434110;32;20387;-72
2023/05/22 06:24:28;;;;;;;52.03;28.90;;;;;;;;;;4434756;32;20041;-73
2023/05/22 06:26:53;;;;;;;49.55;27.95;;;;;;;;;;4434460;32;20106;-72
2023/05/22 06:29:18;;;;;;;46.88;28.55;;;;;;;;;;4435154;32;20018;-73
2023/05/22 06:31:43;;;;;;;53.10;27.98;;;;;;;;;;4435451;32;20079;-73
2023/05/22 06:34:08;;;;;;;50.55;28.58;;;;;;;;;;4436385;32;20478;-72
2023/05/22 06:36:34;;;;;;;52.10;29.33;;;;;;;;;;4435209;32;20022;-72
2023/05/22 06:38:59;;;;;;;52.38;26.73;;;;;;;;;;4434988;32;20052;-71
2023/05/22 06:41:25;;;;;;;46.80;28.73;;;;;;;;;;4436603;32;20030;-72
2023/05/22 06:43:50;;;;;;;53.35;28.98;;;;;;;;;;4435214;32;20437;-71
2023/05/22 06:46:15;;;;;;;50.08;29.98;;;;;;;;;;4435908;32;20048;-72
2023/05/22 06:48:41;;;;;;;52.35;29.00;;;;;;;;;;4433560;32;20535;-72
2023/05/22 06:51:07;;;;;;;56.78;27.65;;;;;;;;;;4434090;32;20075;-72
2023/05/22 06:53:32;;;;;;;46.30;27.45;;;;;;;;;;4436265;32;20030;-72
2023/05/22 06:55:57;;;;;;;51.17;27.75;;;;;;;;;;4435857;32;20453;-71
2023/05/22 06:58:22;;;;;;;48.03;26.27;;;;;;;;;;4436701;32;20049;-71
2023/05/22 07:00:47;;;;;;;50.47;25.45;;;;;;;;;;4436434;32;20055;-71
2023/05/22 07:03:13;;;;;;;50.53;27.07;;;;;;;;;;4438458;32;20438;-71
2023/05/22 07:05:38;;;;;;;51.92;28.00;;;;;;;;;;4441706;32;20109;-72
2023/05/22 07:08:03;;;;;;;53.83;29.05;;;;;;;;;;4442897;32;20413;-71
2023/05/22 07:10:28;;;;;;;48.63;27.73;;;;;;;;;;4437230;32;20100;-71
2023/05/22 07:12:53;;;;;;;40.85;26.60;;;;;;;;;;4437788;32;20053;-71
2023/05/22 07:15:19;;;;;;;43.70;25.92;;;;;;;;;;4438733;32;20064;-72
2023/05/22 07:17:45;;;;;;;54.78;26.95;;;;;;;;;;4437192;32;20026;-72
2023/05/22 07:20:10;;;;;;;50.72;28.87;;;;;;;;;;4437284;32;20034;-71
2023/05/22 07:22:36;;;;;;;44.50;26.20;;;;;;;;;;4437300;32;20057;-72
2023/05/22 07:25:01;;;;;;;46.30;24.90;;;;;;;;;;4435975;32;20451;-72
2023/05/22 07:27:26;;;;;;;42.83;25.20;;;;;;;;;;4437364;32;20018;-72
2023/05/22 07:29:52;;;;;;;41.37;25.40;;;;;;;;;;4437843;32;20100;-72
2023/05/22 07:32:17;;;;;;;43.78;27.60;;;;;;;;;;4437839;32;20121;-71
2023/05/22 07:34:43;;;;;;;43.10;25.03;;;;;;;;;;4437930;32;20167;-72
2023/05/22 07:37:09;;;;;;;42.28;24.63;;;;;;;;;;4436216;32;20478;-72
2023/05/22 07:39:35;;;;;;;47.17;23.35;;;;;;;;;;4437882;32;20018;-71
2023/05/22 07:42:00;;;;;;;39.58;23.12;;;;;;;;;;4437066;32;20358;-71
2023/05/22 07:44:25;;;;;;;40.10;24.27;;;;;;;;;;4436804;32;20076;-71
2023/05/22 07:46:50;;;;;;;48.07;24.67;;;;;;;;;;4438589;32;20331;-71
2023/05/22 07:49:20;;;;;;;38.75;23.65;;;;;;;;;;4436773;32;20122;-71
2023/05/22 07:51:46;;;;;;;47.65;26.05;;;;;;;;;;4437227;32;20044;-72
2023/05/22 07:54:12;;;;;;;36.05;22.60;;;;;;;;;;4436787;32;20037;-71
2023/05/22 07:56:40;;;;;;;31.75;22.33;;;;;;;;;;4437849;32;20064;-72
2023/05/22 07:59:06;;;;;;;38.05;23.20;;;;;;;;;;4435185;32;20060;-72
2023/05/22 08:01:31;;;;;;;42.08;24.52;;;;;;;;;;4436797;32;20017;-72
2023/05/22 08:03:56;;;;;;;39.05;23.52;;;;;;;;;;4438503;32;20056;-71
2023/05/22 08:06:22;;;;;;;33.45;20.17;;;;;;;;;;4437343;32;20017;-72
2023/05/22 08:08:47;;;;;;;37.58;22.27;;;;;;;;;;4438151;32;20475;-73
2023/05/22 08:11:12;;;;;;;49.20;22.25;;;;;;;;;;4436578;32;20438;-72
2023/05/22 08:13:38;;;;;;;45.33;22.37;;;;;;;;;;4435745;32;20094;-72
2023/05/22 08:16:03;;;;;;;39.28;22.35;;;;;;;;;;4436857;32;20501;-72
2023/05/22 08:18:28;;;;;;;35.47;21.15;;;;;;;;;;4437042;32;20066;-72
2023/05/22 08:20:53;;;;;;;33.70;21.42;;;;;;;;;;4437499;32;20147;-72
2023/05/22 08:23:19;;;;;;;37.93;21.30;;;;;;;;;;4437279;32;20014;-73
2023/05/22 08:25:44;;;;;;;49.28;23.10;;;;;;;;;;4436842;32;20521;-72
2023/05/22 08:28:09;;;;;;;41.28;22.33;;;;;;;;;;4436137;32;20057;-72
2023/05/22 08:30:35;;;;;;;36.75;21.87;;;;;;;;;;4438365;32;20022;-72
2023/05/22 08:33:01;;;;;;;38.50;25.00;;;;;;;;;;4435827;32;20021;-72
2023/05/22 08:35:26;;;;;;;40.78;21.02;;;;;;;;;;4437270;32;20448;-72
2023/05/22 08:37:51;;;;;;;35.58;22.25;;;;;;;;;;4436483;32;20025;-71
2023/05/22 08:40:18;;;;;;;38.50;21.23;;;;;;;;;;4435837;32;20018;-73
2023/05/22 08:42:44;;;;;;;33.03;20.17;;;;;;;;;;4436184;32;20410;-72
2023/05/22 08:45:09;;;;;;;33.47;20.10;;;;;;;;;;4435781;32;20018;-72
2023/05/22 08:47:35;;;;;;;26.42;20.95;;;;;;;;;;4438042;32;20113;-73
2023/05/22 08:50:01;;;;;;;31.83;19.83;;;;;;;;;;4434808;32;20021;-72
2023/05/22 08:52:35;;;;;;;28.40;20.45;;;;;;;;;;4437623;32;20029;-73
2023/05/22 08:55:02;;;;;;;31.75;20.83;;;;;;;;;;4436544;32;20018;-72
2023/05/22 08:57:28;;;;;;;32.88;21.80;;;;;;;;;;4434608;32;20307;-72
2023/05/22 08:59:53;;;;;;;36.45;21.35;;;;;;;;;;4436230;32;20350;-72
2023/05/22 09:02:18;;;;;;;34.20;21.00;;;;;;;;;;4436628;32;20162;-72
2023/05/22 09:04:44;;;;;;;35.63;22.30;;;;;;;;;;4436103;32;20140;-72
2023/05/22 09:07:09;;;;;;;35.03;23.50;;;;;;;;;;4437080;32;20014;-72
2023/05/22 09:09:40;;;;;;;27.75;19.60;;;;;;;;;;4435701;32;20117;-73
2023/05/22 09:12:08;;;;;;;34.05;21.40;;;;;;;;;;4435882;32;20486;-74
2023/05/22 09:14:39;;;;;;;36.80;22.80;;;;;;;;;;4436082;32;20079;-72
2023/05/22 09:17:04;;;;;;;38.67;23.33;;;;;;;;;;4436945;32;20530;-72
2023/05/22 09:19:29;;;;;;;31.98;21.23;;;;;;;;;;4435677;32;20041;-72
2023/05/22 09:22:00;;;;;;;32.25;21.67;;;;;;;;;;4437528;32;20387;-72
2023/05/22 09:24:26;;;;;;;31.83;21.48;;;;;;;;;;4435310;32;20120;-72
2023/05/22 09:26:51;;;;;;;37.50;23.23;;;;;;;;;;4435319;32;20014;-73
2023/05/22 09:29:16;;;;;;;30.15;21.00;;;;;;;;;;4437283;32;20441;-73
2023/05/22 09:31:42;;;;;;;37.45;23.48;;;;;;;;;;4435846;32;20022;-72
2023/05/22 09:34:09;;;;;;;30.37;21.20;;;;;;;;;;4437211;32;20021;-72
2023/05/22 09:36:34;;;;;;;33.30;24.37;;;;;;;;;;4436445;32;20061;-74
2023/05/22 09:39:00;;;;;;;29.42;21.90;;;;;;;;;;4437927;32;20038;-72
2023/05/22 09:41:27;;;;;;;34.80;22.23;;;;;;;;;;4437191;32;20044;-72
2023/05/22 09:43:52;;;;;;;33.28;22.35;;;;;;;;;;4436040;32;20051;-73
2023/05/22 09:46:17;;;;;;;34.47;22.33;;;;;;;;;;4434366;32;20026;-73
2023/05/22 09:48:42;;;;;;;31.47;19.97;;;;;;;;;;4436478;32;20018;-73
2023/05/22 09:51:09;;;;;;;35.28;22.58;;;;;;;;;;4435192;32;20537;-72
2023/05/22 09:53:34;;;;;;;31.87;21.83;;;;;;;;;;4435057;32;20108;-72
2023/05/22 09:56:01;;;;;;;34.20;22.50;;;;;;;;;;4437325;32;20399;-71
2023/05/22 09:58:26;;;;;;;33.70;21.85;;;;;;;;;;4437035;32;20049;-73
2023/05/22 10:00:54;;;;;;;27.48;20.45;;;;;;;;;;4434966;32;20103;-73
2023/05/22 10:03:21;;;;;;;30.83;22.75;;;;;;;;;;4436528;32;20423;-72
2023/05/22 10:05:49;;;;;;;29.25;21.12;;;;;;;;;;4435067;32;20064;-73
2023/05/22 10:08:16;;;;;;;32.25;23.50;;;;;;;;;;4435167;32;20063;-73
2023/05/22 10:10:41;;;;;;;35.88;20.88;;;;;;;;;;4420217;32;20017;-71
2023/05/22 10:13:07;;;;;;;30.08;22.00;;;;;;;;;;4420307;32;20040;-72
2023/05/22 10:15:33;;;;;;;33.05;21.73;;;;;;;;;;4419872;32;20053;-72
2023/05/22 10:17:59;;;;;;;34.47;21.45;;;;;;;;;;4420322;32;20080;-72
2023/05/22 10:20:28;;;;;;;32.17;20.90;;;;;;;;;;4419631;32;20069;-72
2023/05/22 10:22:54;;;;;;;30.35;20.17;;;;;;;;;;4421141;32;20023;-72
2023/05/22 10:25:20;;;;;;;30.65;23.40;;;;;;;;;;4420920;32;20140;-72
2023/05/22 10:27:46;;;;;;;29.58;20.92;;;;;;;;;;4418637;32;20072;-72
2023/05/22 10:30:20;;;;;;;36.20;22.27;;;;;;;;;;4421397;32;20027;-73
2023/05/22 10:33:01;;;;;;;30.35;21.98;;;;;;;;;;4419363;32;20026;-71
2023/05/22 10:35:45;;;;;;;29.75;21.27;;;;;;;;;;4420150;32;20051;-72
2023/05/22 10:38:16;;;;;;;24.60;20.70;;;;;;;;;;4426747;32;20399;-73
2023/05/22 10:40:43;;;;;;;24.15;19.08;;;;;;;;;;4436786;32;20044;-73
2023/05/22 10:43:09;;;;;;;34.10;20.30;;;;;;;;;;4438335;32;20038;-71
2023/05/22 10:45:35;;;;;;;31.37;21.60;;;;;;;;;;4439038;32;20095;-73
2023/05/22 10:48:04;;;;;;;30.02;20.75;;;;;;;;;;4436904;32;20448;-71
2023/05/22 10:50:30;;;;;;;33.20;23.33;;;;;;;;;;4438831;32;20059;-73
2023/05/22 10:53:14;;;;;;;29.77;22.13;;;;;;;;;;4440697;32;20025;-72
2023/05/22 10:55:46;;;;;;;33.70;21.62;;;;;;;;;;4439306;32;20026;-73
2023/05/22 10:58:12;;;;;;;28.90;19.35;;;;;;;;;;4438630;32;20389;-73
2023/05/22 11:00:37;;;;;;;27.20;18.30;;;;;;;;;;4437738;32;20129;-73
2023/05/22 11:03:04;;;;;;;26.20;19.25;;;;;;;;;;4439696;32;20089;-72
2023/05/22 11:05:29;;;;;;;33.67;21.30;;;;;;;;;;4437705;32;20048;-71
2023/05/22 11:08:15;;;;;;;30.70;20.40;;;;;;;;;;4438146;32;20022;-73
2023/05/22 11:10:57;;;;;;;27.08;19.85;;;;;;;;;;4432864;32;20140;-73
2023/05/22 11:13:26;;;;;;;27.70;20.08;;;;;;;;;;4439047;32;20037;-72
2023/05/22 11:15:53;;;;;;;29.37;19.40;;;;;;;;;;4438439;32;20068;-72
2023/05/22 11:18:18;;;;;;;32.28;21.62;;;;;;;;;;4439142;32;20383;-71
2023/05/22 11:20:45;;;;;;;31.50;19.55;;;;;;;;;;4438619;32;20153;-72
2023/05/22 11:23:10;;;;;;;27.00;19.70;;;;;;;;;;4437605;32;20033;-73
2023/05/22 11:25:37;;;;;;;32.88;20.48;;;;;;;;;;4437431;32;20098;-73
2023/05/22 11:28:03;;;;;;;30.55;20.15;;;;;;;;;;4438981;32;20026;-73
2023/05/22 11:30:29;;;;;;;27.65;19.00;;;;;;;;;;4437659;32;20348;-73
2023/05/22 11:32:56;;;;;;;24.05;18.05;;;;;;;;;;4436909;32;20077;-72
2023/05/22 11:35:21;;;;;;;23.95;18.52;;;;;;;;;;4437671;32;20498;-72
2023/05/22 11:37:47;;;;;;;26.48;18.23;;;;;;;;;;4438055;32;20025;-72
2023/05/22 11:40:13;;;;;;;24.70;17.25;;;;;;;;;;4439038;32;20027;-73
2023/05/22 11:42:39;;;;;;;27.85;15.65;;;;;;;;;;4436051;32;20052;-72
2023/05/22 11:45:04;;;;;;;29.23;18.07;;;;;;;;;;4435975;32;20148;-72
2023/05/22 11:47:29;;;;;;;26.33;16.50;;;;;;;;;;4437230;32;20128;-72
2023/05/22 11:50:01;;;;;;;26.17;17.77;;;;;;;;;;4436880;32;20021;-72
2023/05/22 11:52:34;;;;;;;24.05;16.75;;;;;;;;;;4437479;32;20026;-72
2023/05/22 11:54:59;;;;;;;27.83;18.25;;;;;;;;;;4437704;32;20110;-73
2023/05/22 11:57:24;;;;;;;25.95;16.85;;;;;;;;;;4436715;32;20064;-72
2023/05/22 11:59:49;;;;;;;23.12;15.77;;;;;;;;;;4436433;32;20037;-73
2023/05/22 12:02:15;;;;;;;23.80;16.73;;;;;;;;;;4435545;32;20090;-73
2023/05/22 12:04:40;;;;;;;24.87;18.10;;;;;;;;;;4436905;32;20510;-73
2023/05/22 12:07:06;;;;;;;26.17;18.80;;;;;;;;;;4438549;32;20026;-72
2023/05/22 12:09:31;;;;;;;25.85;18.05;;;;;;;;;;4437471;32;20078;-73
2023/05/22 12:11:56;;;;;;;25.33;16.92;;;;;;;;;;4437925;32;20033;-75
2023/05/22 12:14:26;;;;;;;20.52;14.80;;;;;;;;;;4437765;32;20049;-72
2023/05/22 12:16:52;;;;;;;26.60;17.37;;;;;;;;;;4436634;32;20033;-71
2023/05/22 12:19:17;;;;;;;25.95;17.87;;;;;;;;;;4436751;32;20087;-73
2023/05/22 12:21:43;;;;;;;23.20;15.30;;;;;;;;;;4436482;32;20359;-72
2023/05/22 12:24:08;;;;;;;27.37;17.33;;;;;;;;;;4436122;32;20118;-72
2023/05/22 12:26:35;;;;;;;21.58;16.67;;;;;;;;;;4436803;32;20045;-74
2023/05/22 12:29:00;;;;;;;24.00;15.93;;;;;;;;;;4435004;32;20048;-72
2023/05/22 12:31:25;;;;;;;24.08;17.15;;;;;;;;;;4436750;32;20343;-72
2023/05/22 12:33:54;;;;;;;18.85;15.48;;;;;;;;;;4436708;32;20347;-73
2023/05/22 12:36:19;;;;;;;25.15;16.27;;;;;;;;;;4436163;32;20395;-72
2023/05/22 12:38:45;;;;;;;25.77;16.20;;;;;;;;;;4435557;32;20045;-72
2023/05/22 12:41:10;;;;;;;21.98;15.90;;;;;;;;;;4435933;32;20395;-73
2023/05/22 12:43:35;;;;;;;23.15;16.45;;;;;;;;;;4437085;32;20041;-73
2023/05/22 12:46:00;;;;;;;25.97;16.87;;;;;;;;;;4437362;32;20026;-71
2023/05/22 12:48:25;;;;;;;26.03;16.63;;;;;;;;;;4436591;32;20532;-72
2023/05/22 12:50:51;;;;;;;23.62;15.05;;;;;;;;;;4437650;32;20125;-72
2023/05/22 12:53:16;;;;;;;24.85;16.25;;;;;;;;;;4436990;32;20021;-73
2023/05/22 12:55:41;;;;;;;24.85;14.55;;;;;;;;;;4436318;32;20040;-72
2023/05/22 12:58:06;;;;;;;16.92;13.45;;;;;;;;;;4435327;32;20021;-73
2023/05/22 13:00:32;;;;;;;22.00;12.90;;;;;;;;;;4435963;32;20057;-73
2023/05/22 13:02:58;;;;;;;19.42;14.35;;;;;;;;;;4435689;32;20117;-72
2023/05/22 13:05:23;;;;;;;19.35;13.85;;;;;;;;;;4434471;32;20108;-72
2023/05/22 13:07:48;;;;;;;24.07;16.37;;;;;;;;;;4436364;32;20018;-71
2023/05/22 13:10:13;;;;;;;18.35;13.60;;;;;;;;;;4436489;32;20167;-73
2023/05/22 13:12:39;;;;;;;19.87;13.10;;;;;;;;;;4435954;32;20142;-72
2023/05/22 13:15:05;;;;;;;18.75;11.93;;;;;;;;;;4436093;32;20058;-73
2023/05/22 13:17:30;;;;;;;16.23;11.65;;;;;;;;;;4435589;32;20387;-72
2023/05/22 13:19:55;;;;;;;17.87;13.00;;;;;;;;;;4436987;32;20017;-72
2023/05/22 13:22:21;;;;;;;18.65;13.27;;;;;;;;;;4435706;32;20017;-72
2023/05/22 13:24:47;;;;;;;16.80;12.37;;;;;;;;;;4434293;32;20048;-72
2023/05/22 13:27:12;;;;;;;16.17;11.85;;;;;;;;;;4436932;32;20076;-72
2023/05/22 13:29:37;;;;;;;16.67;10.85;;;;;;;;;;4435603;32;20029;-72
2023/05/22 13:32:03;;;;;;;13.10;11.23;;;;;;;;;;4436397;32;20044;-72
2023/05/22 13:34:28;;;;;;;13.05;8.80;;;;;;;;;;4436564;32;20437;-73
2023/05/22 13:36:54;;;;;;;15.00;10.15;;;;;;;;;;4436031;32;20043;-72
2023/05/22 13:39:19;;;;;;;12.05;9.10;;;;;;;;;;4435448;32;20044;-72
2023/05/22 13:41:45;;;;;;;15.68;10.10;;;;;;;;;;4435355;32;20399;-72
2023/05/22 13:44:10;;;;;;;18.55;10.75;;;;;;;;;;4436904;32;20021;-72
2023/05/22 13:46:35;;;;;;;16.85;9.82;;;;;;;;;;4433976;32;20425;-72
2023/05/22 13:49:00;;;;;;;12.00;9.90;;;;;;;;;;4433011;32;20047;-72
2023/05/22 13:51:26;;;;;;;19.03;9.97;;;;;;;;;;4435401;32;20454;-72
2023/05/22 13:53:51;;;;;;;9.93;8.50;;;;;;;;;;4434581;32;20174;-73
2023/05/22 13:56:16;;;;;;;13.87;10.03;;;;;;;;;;4436292;32;20121;-73
2023/05/22 13:58:41;;;;;;;13.15;8.20;;;;;;;;;;4435210;32;20143;-73
2023/05/22 14:01:07;;;;;;;14.05;10.13;;;;;;;;;;4434031;32;20426;-71
2023/05/22 14:03:33;;;;;;;14.75;9.98;;;;;;;;;;4434822;32;20384;-73
2023/05/22 14:05:58;;;;;;;13.85;10.30;;;;;;;;;;4436326;32;20423;-73
2023/05/22 14:08:23;;;;;;;11.52;9.05;;;;;;;;;;4435012;32;20621;-72
2023/05/22 14:10:48;;;;;;;13.15;8.95;;;;;;;;;;4423047;32;20426;-72
2023/05/22 14:13:14;;;;;;;11.80;8.50;;;;;;;;;;4422947;32;20045;-71